createdAt,value
2023-02-27T00:00:32.900Z,100967.11
2023-02-27T00:03:20.913Z,100965.12
2023-02-27T00:05:49.007Z,100965.33
2023-02-27T00:08:16.680Z,100966.04
2023-02-27T00:10:44.409Z,100965.27
2023-02-27T00:13:12.053Z,100971.48
2023-02-27T00:15:41.067Z,100973.11
2023-02-27T00:18:09.004Z,100973.90
2023-02-27T00:20:38.262Z,100973.44
2023-02-27T00:23:06.960Z,100974.63
2023-02-27T00:25:35.351Z,100976.05
2023-02-27T00:28:04.419Z,100974.89
2023-02-27T00:30:32.763Z,100974.41
2023-02-27T00:33:00.881Z,100975.55
2023-02-27T00:35:28.680Z,100981.69
2023-02-27T00:37:56.405Z,100979.61
2023-02-27T00:40:26.714Z,100979.71
2023-02-27T00:42:54.921Z,100975.86
2023-02-27T00:45:22.706Z,100978.54
2023-02-27T00:47:50.439Z,100980.83
2023-02-27T00:50:18.346Z,100982.56
2023-02-27T00:52:46.145Z,100976.78
2023-02-27T00:55:14.091Z,100975.70
2023-02-27T00:57:41.993Z,100971.27
2023-02-27T01:00:11.023Z,100966.13
2023-02-27T01:02:39.032Z,100969.66
2023-02-27T01:05:09.232Z,100966.53
2023-02-27T01:07:37.684Z,100967.30
2023-02-27T01:10:06.845Z,100965.52
2023-02-27T01:12:34.767Z,100966.70
2023-02-27T01:15:03.578Z,100968.54
2023-02-27T01:17:31.897Z,100969.42
2023-02-27T01:19:59.573Z,100968.17
2023-02-27T01:22:27.300Z,100968.48
2023-02-27T01:24:55.146Z,100971.33
2023-02-27T01:27:23.055Z,100974.29
2023-02-27T01:29:50.826Z,100973.80
2023-02-27T01:32:18.888Z,100975.95
2023-02-27T01:34:46.617Z,100973.85
2023-02-27T01:37:14.304Z,100972.85
2023-02-27T01:39:43.873Z,100974.25
2023-02-27T01:42:24.297Z,100976.59
2023-02-27T01:45:20.627Z,100975.05
2023-02-27T01:47:51.253Z,100975.20
2023-02-27T01:50:19.640Z,100983.60
2023-02-27T01:52:53.226Z,100982.55
2023-02-27T01:55:21.770Z,100984.96
2023-02-27T01:57:49.807Z,100986.87
2023-02-27T02:00:18.484Z,100988.33
2023-02-27T02:03:28.880Z,100985.53
2023-02-27T02:05:58.676Z,100985.56
2023-02-27T02:08:28.912Z,100984.16
2023-02-27T02:10:58.317Z,100985.95
2023-02-27T02:13:26.089Z,100985.88
2023-02-27T02:16:00.770Z,100986.17
2023-02-27T02:18:41.505Z,100989.16
2023-02-27T02:21:31.082Z,100984.30
2023-02-27T02:24:40.897Z,100989.95
2023-02-27T02:27:19.082Z,100988.14
2023-02-27T02:30:06.253Z,100983.06
2023-02-27T02:32:37.295Z,100988.84
2023-02-27T02:35:26.818Z,100990.79
2023-02-27T02:38:06.618Z,100990.77
2023-02-27T02:40:57.233Z,100992.24
2023-02-27T02:43:30.620Z,100989.75
2023-02-27T02:46:08.356Z,100991.45
2023-02-27T02:48:49.122Z,100989.81
2023-02-27T02:51:40.494Z,100992.55
2023-02-27T02:54:08.190Z,100993.61
2023-02-27T02:56:40.450Z,100995.75
2023-02-27T02:59:19.871Z,101005.23
2023-02-27T03:01:57.768Z,101006.24
2023-02-27T03:04:34.862Z,101011.55
2023-02-27T03:07:19.918Z,101015.55
2023-02-27T03:09:58.693Z,101019.10
2023-02-27T03:12:27.402Z,101021.84
2023-02-27T03:15:20.057Z,101024.74
2023-02-27T03:17:51.322Z,101024.16
2023-02-27T03:20:31.383Z,101030.32
2023-02-27T03:23:01.968Z,101033.52
2023-02-27T03:25:30.495Z,101037.43
2023-02-27T03:28:01.537Z,101036.25
2023-02-27T03:30:45.175Z,101037.48
2023-02-27T03:33:33.081Z,101040.40
2023-02-27T03:36:49.374Z,101038.14
2023-02-27T03:39:24.205Z,101040.85
2023-02-27T03:42:09.127Z,101038.77
2023-02-27T03:45:05.187Z,101041.04
2023-02-27T03:47:33.513Z,101044.17
2023-02-27T03:50:01.216Z,101047.51
2023-02-27T03:52:30.200Z,101052.73
2023-02-27T03:55:08.368Z,101052.83
2023-02-27T03:57:42.223Z,101055.73
2023-02-27T04:00:14.221Z,101058.73
2023-02-27T04:02:44.932Z,101057.08
2023-02-27T04:05:14.857Z,101060.71
2023-02-27T04:08:10.491Z,101063.56
2023-02-27T04:10:51.963Z,101064.37
2023-02-27T04:14:05.617Z,101068.84
2023-02-27T04:16:37.152Z,101076.09
2023-02-27T04:19:10.836Z,101079.79
2023-02-27T04:21:44.041Z,101080.94
2023-02-27T04:24:51.684Z,101080.01
2023-02-27T04:27:39.334Z,101083.05
2023-02-27T04:30:29.034Z,101081.98
2023-02-27T04:33:08.222Z,101083.21
2023-02-27T04:35:52.717Z,101086.29
2023-02-27T04:38:30.226Z,101089.54
2023-02-27T04:41:03.321Z,101084.52
2023-02-27T04:43:31.470Z,101081.77
2023-02-27T04:46:00.969Z,101085.27
2023-02-27T04:48:55.663Z,101086.04
2023-02-27T04:51:27.463Z,101085.58
2023-02-27T04:54:00.469Z,101087.13
2023-02-27T04:56:33.828Z,101091.13
2023-02-27T04:59:13.672Z,101092.06
2023-02-27T05:01:44.479Z,101095.98
2023-02-27T05:04:15.805Z,101092.61
2023-02-27T05:06:44.751Z,101095.83
2023-02-27T05:09:31.908Z,101100.71
2023-02-27T05:12:04.164Z,101095.87
2023-02-27T05:14:36.189Z,101098.30
2023-02-27T05:17:15.328Z,101102.65
2023-02-27T05:19:44.324Z,101106.35
2023-02-27T05:22:12.424Z,101114.69
2023-02-27T05:25:08.356Z,101112.67
2023-02-27T05:27:49.764Z,101119.29
2023-02-27T05:30:23.362Z,101122.85
2023-02-27T05:32:57.983Z,101129.58
2023-02-27T05:35:36.040Z,101131.09
2023-02-27T05:38:12.784Z,101136.59
2023-02-27T05:40:51.515Z,101138.27
2023-02-27T05:43:23.306Z,101140.55
2023-02-27T05:45:56.976Z,101149.48
2023-02-27T05:48:28.171Z,101148.72
2023-02-27T05:50:56.298Z,101147.41
2023-02-27T05:53:27.326Z,101145.52
2023-02-27T05:55:57.085Z,101144.33
2023-02-27T05:58:35.615Z,101143.88
2023-02-27T06:01:09.009Z,101146.40
2023-02-27T06:03:38.070Z,101149.42
2023-02-27T06:06:16.760Z,101151.73
2023-02-27T06:08:45.402Z,101154.80
2023-02-27T06:11:13.246Z,101156.46
2023-02-27T06:13:42.220Z,101160.05
2023-02-27T06:16:17.368Z,101165.27
2023-02-27T06:18:45.076Z,101160.17
2023-02-27T06:21:13.808Z,101160.48
2023-02-27T06:23:41.763Z,101157.73
2023-02-27T06:26:13.921Z,101160.46
2023-02-27T06:28:42.534Z,101157.46
2023-02-27T06:31:10.951Z,101158.00
2023-02-27T06:33:38.859Z,101159.09
2023-02-27T06:36:06.809Z,101161.45
2023-02-27T06:38:34.698Z,101160.80
2023-02-27T06:41:04.374Z,101159.27
2023-02-27T06:43:34.743Z,101157.39
2023-02-27T06:46:03.008Z,101159.73
2023-02-27T06:48:30.765Z,101164.00
2023-02-27T06:50:58.483Z,101161.54
2023-02-27T06:53:26.250Z,101169.67
2023-02-27T06:55:53.903Z,101169.09
2023-02-27T06:58:21.697Z,101173.02
2023-02-27T07:00:49.418Z,101174.99
2023-02-27T07:03:17.144Z,101174.36
2023-02-27T07:05:45.155Z,101177.30
2023-02-27T07:08:12.877Z,101178.16
2023-02-27T07:10:43.990Z,101179.00
2023-02-27T07:13:11.672Z,101185.92
2023-02-27T07:15:40.025Z,101187.34
2023-02-27T07:18:07.756Z,101191.60
2023-02-27T07:20:35.481Z,101197.89
2023-02-27T07:23:03.651Z,101199.67
2023-02-27T07:25:31.384Z,101199.83
2023-02-27T07:27:59.210Z,101199.61
2023-02-27T07:30:26.953Z,101194.17
2023-02-27T07:32:54.642Z,101198.70
2023-02-27T07:35:22.738Z,101206.34
2023-02-27T07:37:50.513Z,101205.66
2023-02-27T07:40:18.263Z,101212.36
2023-02-27T07:42:48.581Z,101207.27
2023-02-27T07:45:20.810Z,101208.22
2023-02-27T07:47:48.638Z,101206.63
2023-02-27T07:50:16.818Z,101210.41
2023-02-27T07:52:44.551Z,101205.84
2023-02-27T07:55:13.582Z,101210.30
2023-02-27T07:57:41.389Z,101214.36
2023-02-27T08:00:10.414Z,101214.70
2023-02-27T08:02:41.015Z,101215.71
2023-02-27T08:05:09.065Z,101216.28
2023-02-27T08:07:36.755Z,101221.46
2023-02-27T08:10:05.439Z,101221.04
2023-02-27T08:12:33.239Z,101221.58
2023-02-27T08:15:01.132Z,101226.66
2023-02-27T08:17:28.893Z,101224.74
2023-02-27T08:19:56.749Z,101230.50
2023-02-27T08:22:24.413Z,101230.79
2023-02-27T08:24:52.104Z,101230.95
2023-02-27T08:27:19.849Z,101228.96
2023-02-27T08:29:47.589Z,101235.34
2023-02-27T08:32:15.415Z,101238.14
2023-02-27T08:34:43.218Z,101237.98
2023-02-27T08:37:10.838Z,101237.21
2023-02-27T08:39:38.532Z,101240.23
2023-02-27T08:42:07.332Z,101237.87
2023-02-27T08:44:35.194Z,101239.56
2023-02-27T08:47:03.186Z,101238.60
2023-02-27T08:49:30.829Z,101244.44
2023-02-27T08:51:59.031Z,101248.02
2023-02-27T08:54:27.170Z,101245.44
2023-02-27T08:56:55.042Z,101247.60
2023-02-27T08:59:22.799Z,101247.34
2023-02-27T14:02:57.880Z,101291.13
2023-02-27T14:05:47.828Z,101297.36
2023-02-27T14:08:27.153Z,101300.56
2023-02-27T14:11:09.991Z,101301.80
2023-02-27T14:13:57.671Z,101305.06
2023-02-27T14:16:40.850Z,101304.75
2023-02-27T14:19:11.999Z,101307.35
2023-02-27T14:21:56.052Z,101306.91
2023-02-27T14:24:33.344Z,101308.60
2023-02-27T14:27:03.177Z,101307.77
2023-02-27T14:29:33.614Z,101311.93
2023-02-27T14:32:07.892Z,101310.20
2023-02-27T14:34:36.593Z,101314.25
2023-02-27T14:37:07.156Z,101316.23
2023-02-27T14:39:36.796Z,101318.56
2023-02-27T14:42:20.318Z,101318.09
2023-02-27T14:44:48.933Z,101324.29
2023-02-27T14:47:24.582Z,101327.58
2023-02-27T14:49:52.866Z,101323.95
2023-02-27T14:52:23.868Z,101324.69
2023-02-27T14:54:53.428Z,101326.83
2023-02-27T14:57:24.217Z,101323.89
2023-02-27T14:59:53.879Z,101329.32
2023-02-27T15:02:24.914Z,101333.38
2023-02-27T15:04:56.630Z,101336.56
2023-02-27T15:07:26.816Z,101334.92
2023-02-27T15:09:57.492Z,101338.61
2023-02-27T15:12:26.769Z,101341.84
2023-02-27T15:14:59.910Z,101339.09
2023-02-27T15:17:39.359Z,101344.98
2023-02-27T15:20:30.172Z,101343.73
2023-02-27T15:22:59.614Z,101349.69
2023-02-27T15:25:39.699Z,101348.77
2023-02-27T15:28:27.712Z,101355.88
2023-02-27T15:30:56.596Z,101356.79
2023-02-27T15:33:32.520Z,101359.38
2023-02-27T15:36:00.831Z,101362.73
2023-02-27T15:38:32.642Z,101366.56
2023-02-27T15:41:02.564Z,101366.55
2023-02-27T15:43:30.739Z,101366.14
2023-02-27T15:45:58.572Z,101370.14
2023-02-27T15:48:26.571Z,101375.56
2023-02-27T15:50:58.022Z,101382.02
2023-02-27T15:53:28.311Z,101387.71
2023-02-27T15:56:01.728Z,101387.52
2023-02-27T15:58:33.244Z,101392.46
2023-02-27T16:01:21.115Z,101391.61
2023-02-27T16:03:51.451Z,101393.01
2023-02-27T16:06:28.765Z,101397.87
2023-02-27T16:09:00.487Z,101403.02
2023-02-27T16:11:31.373Z,101404.13
2023-02-27T16:13:59.486Z,101405.30
2023-02-27T16:16:36.105Z,101406.77
2023-02-27T16:19:27.586Z,101411.15
2023-02-27T16:22:15.237Z,101411.45
2023-02-27T16:24:44.385Z,101416.15
2023-02-27T16:27:29.479Z,101416.59
2023-02-27T16:30:02.432Z,101415.63
2023-02-27T16:32:35.482Z,101417.88
2023-02-27T16:35:08.724Z,101425.73
2023-02-27T16:37:39.312Z,101427.52
2023-02-27T16:40:24.360Z,101432.13
2023-02-27T16:42:52.666Z,101431.10
2023-02-27T16:45:26.517Z,101438.13
2023-02-27T16:47:56.850Z,101434.65
2023-02-27T16:50:28.798Z,101442.18
2023-02-27T16:52:57.474Z,101440.20
2023-02-27T16:55:25.612Z,101441.80
2023-02-27T16:57:53.466Z,101441.92
2023-02-27T17:00:22.862Z,101445.86
2023-02-27T17:02:51.244Z,101449.23
2023-02-27T17:05:19.148Z,101450.05
2023-02-27T17:07:47.242Z,101453.36
2023-02-27T17:10:17.797Z,101452.11
2023-02-27T17:12:48.305Z,101458.36
2023-02-27T17:15:16.482Z,101459.98
2023-02-27T17:17:45.044Z,101459.98
2023-02-27T17:20:15.243Z,101459.05
2023-02-27T17:22:44.980Z,101458.74
2023-02-27T17:25:13.478Z,101460.61
2023-02-27T17:27:44.896Z,101462.89
2023-02-27T17:30:14.483Z,101461.75
2023-02-27T17:32:42.666Z,101465.95
2023-02-27T17:35:10.839Z,101470.20
2023-02-27T17:37:38.819Z,101467.76
2023-02-27T17:40:08.292Z,101470.38
2023-02-27T17:42:36.847Z,101472.95
2023-02-27T17:45:06.459Z,101467.30
2023-02-27T17:47:35.090Z,101466.95
2023-02-27T17:50:04.920Z,101471.60
2023-02-27T17:52:35.885Z,101474.46
2023-02-27T17:55:04.276Z,101475.69
2023-02-27T17:57:35.711Z,101472.83
2023-02-27T18:00:06.012Z,101472.70
2023-02-27T18:02:34.054Z,101474.55
2023-02-27T18:05:04.642Z,101476.21
2023-02-27T18:07:32.823Z,101474.71
2023-02-27T18:10:00.560Z,101478.02
2023-02-27T18:12:28.356Z,101474.59
2023-02-27T18:14:56.538Z,101477.02
2023-02-27T18:17:24.323Z,101478.58
2023-02-27T18:19:52.063Z,101479.17
2023-02-27T18:22:21.821Z,101483.38
2023-02-27T18:24:53.364Z,101481.61
2023-02-27T18:27:24.864Z,101484.10
2023-02-27T18:29:52.717Z,101490.13
2023-02-27T18:32:21.020Z,101488.19
2023-02-27T18:34:49.127Z,101485.88
2023-02-27T18:37:16.834Z,101488.98
2023-02-27T18:39:44.620Z,101488.30
2023-02-27T18:42:12.309Z,101489.70
2023-02-27T18:44:41.389Z,101492.48
2023-02-27T18:47:09.812Z,101493.32
2023-02-27T18:49:38.006Z,101497.23
2023-02-27T18:52:05.903Z,101496.20
2023-02-27T18:54:33.748Z,101499.27
2023-02-27T18:57:01.660Z,101504.90
2023-02-27T18:59:29.424Z,101501.05
2023-02-27T19:01:58.083Z,101505.20
2023-02-27T19:04:26.077Z,101500.29
2023-02-27T19:06:53.936Z,101504.83
2023-02-27T19:09:22.347Z,101514.14
2023-02-27T19:11:50.429Z,101515.00
2023-02-27T19:14:18.423Z,101516.98
2023-02-27T19:16:46.363Z,101516.52
2023-02-27T19:19:15.289Z,101516.89
2023-02-27T19:21:43.723Z,101515.10
2023-02-27T19:24:12.830Z,101519.81
2023-02-27T19:26:40.944Z,101521.08
2023-02-27T19:29:08.824Z,101526.24
2023-02-27T19:31:36.994Z,101525.91
2023-02-27T19:34:05.373Z,101530.33
2023-02-27T19:36:34.597Z,101529.76
2023-02-27T19:39:03.762Z,101530.13
2023-02-27T19:41:33.405Z,101534.80
2023-02-27T19:44:01.581Z,101533.11
2023-02-27T19:46:32.359Z,101530.61
2023-02-27T19:49:05.534Z,101528.69
2023-02-27T19:51:33.930Z,101530.96
2023-02-27T19:54:01.774Z,101534.13
2023-02-27T19:56:30.694Z,101538.38
2023-02-27T19:59:00.977Z,101535.55
2023-02-27T20:01:34.423Z,101545.03
2023-02-27T20:04:03.456Z,101543.64
2023-02-27T20:06:33.690Z,101545.86
2023-02-27T20:09:01.595Z,101547.20
2023-02-27T20:11:31.025Z,101546.95
2023-02-27T20:13:59.220Z,101548.13
2023-02-27T20:16:29.832Z,101549.04
2023-02-27T20:18:57.977Z,101548.48
2023-02-27T20:21:28.638Z,101551.50
2023-02-27T20:23:58.309Z,101553.36
2023-02-27T20:26:34.966Z,101555.80
2023-02-27T20:29:07.069Z,101554.27
2023-02-27T20:31:36.295Z,101554.50
2023-02-27T20:34:06.232Z,101553.10
2023-02-27T20:36:35.374Z,101554.17
2023-02-27T20:39:04.536Z,101556.84
2023-02-27T20:41:34.579Z,101557.13
2023-02-27T20:44:04.390Z,101556.98
2023-02-27T20:46:32.673Z,101559.20
2023-02-27T20:49:02.495Z,101560.30
2023-02-27T20:51:42.131Z,101562.30
2023-02-27T20:54:13.609Z,101559.44
2023-02-27T20:56:43.201Z,101558.54
2023-02-27T20:59:18.938Z,101557.73
2023-02-27T21:01:51.589Z,101563.16
2023-02-27T21:04:20.065Z,101560.36
2023-02-27T21:06:48.442Z,101563.17
2023-02-27T21:09:16.782Z,101567.74
2023-02-27T21:11:44.892Z,101568.30
2023-02-27T21:14:12.727Z,101569.23
2023-02-27T21:16:40.706Z,101570.40
2023-02-27T21:19:08.713Z,101571.48
2023-02-27T21:21:37.170Z,101572.95
2023-02-27T21:24:06.462Z,101576.88
2023-02-27T21:26:40.286Z,101578.67
2023-02-27T21:29:13.801Z,101579.12
2023-02-27T21:31:45.219Z,101576.56
2023-02-27T21:34:15.778Z,101573.58
2023-02-27T21:36:45.259Z,101576.18
2023-02-27T21:39:16.136Z,101581.07
2023-02-27T21:41:44.582Z,101583.48
2023-02-27T21:44:15.065Z,101580.13
2023-02-27T21:46:43.410Z,101585.48
2023-02-27T21:49:17.525Z,101586.66
2023-02-27T21:51:46.724Z,101590.19
2023-02-27T21:54:15.483Z,101589.77
2023-02-27T21:56:45.638Z,101591.73
2023-02-27T21:59:14.671Z,101592.56
2023-02-27T22:01:47.357Z,101591.19
2023-02-27T22:04:17.094Z,101594.75
2023-02-27T22:06:45.443Z,101589.20
2023-02-27T22:09:13.759Z,101594.29
2023-02-27T22:11:41.856Z,101593.15
2023-02-27T22:14:10.699Z,101590.95
2023-02-27T22:16:38.921Z,101588.94
2023-02-27T22:19:08.631Z,101589.36
2023-02-27T22:21:37.694Z,101587.70
2023-02-27T22:24:06.837Z,101590.70
2023-02-27T22:26:35.105Z,101591.37
2023-02-27T22:29:04.701Z,101587.99
2023-02-27T22:31:35.238Z,101591.13
2023-02-27T22:34:18.606Z,101591.23
2023-02-27T22:36:52.669Z,101592.92
2023-02-27T22:39:21.508Z,101591.81
2023-02-27T22:41:49.527Z,101588.73
2023-02-27T22:44:17.290Z,101588.56
2023-02-27T22:46:47.998Z,101592.45
2023-02-27T22:49:21.399Z,101592.04
2023-02-27T22:51:51.189Z,101594.95
2023-02-27T22:54:21.910Z,101592.27
2023-02-27T22:56:51.515Z,101591.72
2023-02-27T22:59:19.872Z,101594.11
2023-02-27T23:01:48.779Z,101593.21
2023-02-27T23:04:20.852Z,101594.98
2023-02-27T23:06:49.544Z,101594.29
2023-02-27T23:09:20.600Z,101589.38
2023-02-27T23:11:48.553Z,101589.39
2023-02-27T23:14:17.239Z,101591.88
2023-02-27T23:16:45.897Z,101592.98
2023-02-27T23:19:16.052Z,101593.16
2023-02-27T23:21:43.833Z,101600.30
2023-02-27T23:24:14.346Z,101599.85
2023-02-27T23:26:44.867Z,101601.28
2023-02-27T23:29:12.974Z,101600.75
2023-02-27T23:31:42.307Z,101603.16
2023-02-27T23:34:10.549Z,101604.25
2023-02-27T23:36:38.702Z,101610.05
2023-02-27T23:39:07.146Z,101612.62
2023-02-27T23:41:34.832Z,101608.27
2023-02-27T23:44:21.547Z,101611.76
2023-02-27T23:46:49.756Z,101613.89
2023-02-27T23:49:17.395Z,101614.86
2023-02-27T23:51:45.169Z,101616.41
2023-02-27T23:54:12.981Z,101612.99
2023-02-27T23:56:40.653Z,101614.28
2023-02-27T23:59:08.369Z,101614.48
